sensor_id;sensor_type;location;lat;lon;timestamp;temperature;humidity
5792;DHT22;2922;53.482;10.006;2023-04-25T00:01:55;8.00;99.90
5792;DHT22;2922;53.482;10.006;2023-04-25T00:04:22;8.00;99.90
5792;DHT22;2922;53.482;10.006;2023-04-25T00:06:47;8.00;99.90
5792;DHT22;2922;53.482;10.006;2023-04-25T00:09:13;7.90;99.90
5792;DHT22;2922;53.482;10.006;2023-04-25T00:11:40;7.90;99.90
5792;DHT22;2922;53.482;10.006;2023-04-25T00:14:05;7.90;99.90
5792;DHT22;2922;53.482;10.006;2023-04-25T00:16:31;7.90;99.90
5792;DHT22;2922;53.482;10.006;2023-04-25T00:18:59;7.90;99.90
5792;DHT22;2922;53.482;10.006;2023-04-25T00:21:25;7.90;99.90
5792;DHT22;2922;53.482;10.006;2023-04-25T00:23:52;7.90;99.90
5792;DHT22;2922;53.482;10.006;2023-04-25T00:26:18;7.80;99.90
5792;DHT22;2922;53.482;10.006;2023-04-25T00:28:44;7.80;99.90
5792;DHT22;2922;53.482;10.006;2023-04-25T00:31:09;7.80;99.90
5792;DHT22;2922;53.482;10.006;2023-04-25T00:33:35;7.80;99.90
5792;DHT22;2922;53.482;10.006;2023-04-25T00:36:01;7.80;99.90
5792;DHT22;2922;53.482;10.006;2023-04-25T00:38:27;7.70;99.90
5792;DHT22;2922;53.482;10.006;2023-04-25T00:40:52;7.70;99.90
5792;DHT22;2922;53.482;10.006;2023-04-25T00:43:18;7.70;99.90
5792;DHT22;2922;53.482;10.006;2023-04-25T00:45:44;7.70;99.90
5792;DHT22;2922;53.482;10.006;2023-04-25T00:48:14;7.80;99.90
5792;DHT22;2922;53.482;10.006;2023-04-25T00:50:39;7.70;99.90
5792;DHT22;2922;53.482;10.006;2023-04-25T00:53:05;7.70;99.90
5792;DHT22;2922;53.482;10.006;2023-04-25T00:55:31;7.70;99.90
5792;DHT22;2922;53.482;10.006;2023-04-25T00:57:58;7.70;99.90
5792;DHT22;2922;53.482;10.006;2023-04-25T01:00:24;7.70;99.90
5792;DHT22;2922;53.482;10.006;2023-04-25T01:02:49;7.60;99.90
5792;DHT22;2922;53.482;10.006;2023-04-25T01:05:15;7.60;99.90
5792;DHT22;2922;53.482;10.006;2023-04-25T01:07:41;7.60;99.90
5792;DHT22;2922;53.482;10.006;2023-04-25T01:10:07;7.60;99.90
5792;DHT22;2922;53.482;10.006;2023-04-25T01:12:33;7.50;99.90
5792;DHT22;2922;53.482;10.006;2023-04-25T01:14:59;7.50;99.90
5792;DHT22;2922;53.482;10.006;2023-04-25T01:17:25;7.50;99.90
5792;DHT22;2922;53.482;10.006;2023-04-25T01:19:50;7.40;99.90
5792;DHT22;2922;53.482;10.006;2023-04-25T01:22:17;7.40;99.90
5792;DHT22;2922;53.482;10.006;2023-04-25T01:24:43;7.40;99.90
5792;DHT22;2922;53.482;10.006;2023-04-25T01:27:09;7.40;99.90
5792;DHT22;2922;53.482;10.006;2023-04-25T01:29:35;7.40;99.90
5792;DHT22;2922;53.482;10.006;2023-04-25T01:32:02;7.40;99.90
5792;DHT22;2922;53.482;10.006;2023-04-25T01:34:28;7.30;99.90
5792;DHT22;2922;53.482;10.006;2023-04-25T01:36:54;7.30;99.90
5792;DHT22;2922;53.482;10.006;2023-04-25T01:39:20;7.30;99.90
5792;DHT22;2922;53.482;10.006;2023-04-25T01:41:46;7.20;99.90
5792;DHT22;2922;53.482;10.006;2023-04-25T01:44:12;7.20;99.90
5792;DHT22;2922;53.482;10.006;2023-04-25T01:46:38;7.20;99.90
5792;DHT22;2922;53.482;10.006;2023-04-25T01:49:04;7.20;99.90
5792;DHT22;2922;53.482;10.006;2023-04-25T01:51:30;7.20;99.90
5792;DHT22;2922;53.482;10.006;2023-04-25T01:53:56;7.10;99.90
5792;DHT22;2922;53.482;10.006;2023-04-25T01:56:22;7.10;99.90
5792;DHT22;2922;53.482;10.006;2023-04-25T01:58:48;7.10;99.90
5792;DHT22;2922;53.482;10.006;2023-04-25T02:01:14;7.10;99.90
5792;DHT22;2922;53.482;10.006;2023-04-25T02:03:40;7.10;99.90
5792;DHT22;2922;53.482;10.006;2023-04-25T02:06:05;7.00;99.90
5792;DHT22;2922;53.482;10.006;2023-04-25T02:08:31;7.10;99.90
5792;DHT22;2922;53.482;10.006;2023-04-25T02:10:57;7.00;99.90
5792;DHT22;2922;53.482;10.006;2023-04-25T02:13:22;7.00;99.90
5792;DHT22;2922;53.482;10.006;2023-04-25T02:15:48;7.00;99.90
5792;DHT22;2922;53.482;10.006;2023-04-25T02:18:14;7.00;99.90
5792;DHT22;2922;53.482;10.006;2023-04-25T02:20:41;7.00;99.90
5792;DHT22;2922;53.482;10.006;2023-04-25T02:23:07;6.90;99.90
5792;DHT22;2922;53.482;10.006;2023-04-25T02:25:33;6.90;99.90
5792;DHT22;2922;53.482;10.006;2023-04-25T02:27:58;6.90;99.90
5792;DHT22;2922;53.482;10.006;2023-04-25T02:30:24;6.90;99.90
5792;DHT22;2922;53.482;10.006;2023-04-25T02:32:49;6.80;99.90
5792;DHT22;2922;53.482;10.006;2023-04-25T02:35:16;6.80;99.90
5792;DHT22;2922;53.482;10.006;2023-04-25T02:37:42;6.80;99.90
5792;DHT22;2922;53.482;10.006;2023-04-25T02:40:08;6.80;99.90
5792;DHT22;2922;53.482;10.006;2023-04-25T02:42:34;6.80;99.90
5792;DHT22;2922;53.482;10.006;2023-04-25T02:45:00;6.70;99.90
5792;DHT22;2922;53.482;10.006;2023-04-25T02:47:25;6.70;99.90
5792;DHT22;2922;53.482;10.006;2023-04-25T02:49:51;6.70;99.90
5792;DHT22;2922;53.482;10.006;2023-04-25T02:52:17;6.70;99.90
5792;DHT22;2922;53.482;10.006;2023-04-25T02:54:42;6.70;99.90
5792;DHT22;2922;53.482;10.006;2023-04-25T02:57:08;6.70;99.90
5792;DHT22;2922;53.482;10.006;2023-04-25T02:59:34;6.70;99.90
5792;DHT22;2922;53.482;10.006;2023-04-25T03:02:00;6.70;99.90
5792;DHT22;2922;53.482;10.006;2023-04-25T03:04:25;6.70;99.90
5792;DHT22;2922;53.482;10.006;2023-04-25T03:06:51;6.60;99.90
5792;DHT22;2922;53.482;10.006;2023-04-25T03:09:17;6.70;99.90
5792;DHT22;2922;53.482;10.006;2023-04-25T03:11:44;6.60;99.90
5792;DHT22;2922;53.482;10.006;2023-04-25T03:14:10;6.60;99.90
5792;DHT22;2922;53.482;10.006;2023-04-25T03:16:35;6.60;99.90
5792;DHT22;2922;53.482;10.006;2023-04-25T03:19:02;6.60;99.90
5792;DHT22;2922;53.482;10.006;2023-04-25T03:21:28;6.60;99.90
5792;DHT22;2922;53.482;10.006;2023-04-25T03:23:53;6.50;99.90
5792;DHT22;2922;53.482;10.006;2023-04-25T03:26:19;6.50;99.90
5792;DHT22;2922;53.482;10.006;2023-04-25T03:28:44;6.50;99.90
5792;DHT22;2922;53.482;10.006;2023-04-25T03:31:10;6.40;99.90
5792;DHT22;2922;53.482;10.006;2023-04-25T03:33:35;6.40;99.90
5792;DHT22;2922;53.482;10.006;2023-04-25T03:36:01;6.40;99.90
5792;DHT22;2922;53.482;10.006;2023-04-25T03:38:27;6.30;99.90
5792;DHT22;2922;53.482;10.006;2023-04-25T03:40:53;6.30;99.90
5792;DHT22;2922;53.482;10.006;2023-04-25T03:43:19;6.20;99.90
5792;DHT22;2922;53.482;10.006;2023-04-25T03:45:44;6.20;99.90
5792;DHT22;2922;53.482;10.006;2023-04-25T03:48:11;6.20;99.90
5792;DHT22;2922;53.482;10.006;2023-04-25T03:50:36;6.10;99.90
5792;DHT22;2922;53.482;10.006;2023-04-25T03:53:02;6.20;99.90
5792;DHT22;2922;53.482;10.006;2023-04-25T03:55:28;6.20;99.90
5792;DHT22;2922;53.482;10.006;2023-04-25T03:57:53;6.20;99.90
5792;DHT22;2922;53.482;10.006;2023-04-25T04:00:19;6.20;99.90
5792;DHT22;2922;53.482;10.006;2023-04-25T04:02:44;6.10;99.90
5792;DHT22;2922;53.482;10.006;2023-04-25T04:05:10;6.20;99.90
5792;DHT22;2922;53.482;10.006;2023-04-25T04:07:36;6.10;99.90
5792;DHT22;2922;53.482;10.006;2023-04-25T04:10:06;6.10;99.90
5792;DHT22;2922;53.482;10.006;2023-04-25T04:12:33;6.10;99.90
5792;DHT22;2922;53.482;10.006;2023-04-25T04:14:58;6.10;99.90
5792;DHT22;2922;53.482;10.006;2023-04-25T04:17:24;6.10;99.90
5792;DHT22;2922;53.482;10.006;2023-04-25T04:19:50;6.10;99.90
5792;DHT22;2922;53.482;10.006;2023-04-25T04:22:16;6.10;99.90
5792;DHT22;2922;53.482;10.006;2023-04-25T04:24:41;6.10;99.90
5792;DHT22;2922;53.482;10.006;2023-04-25T04:27:11;6.10;99.90
5792;DHT22;2922;53.482;10.006;2023-04-25T04:29:38;6.10;99.90
5792;DHT22;2922;53.482;10.006;2023-04-25T04:32:03;6.10;99.90
5792;DHT22;2922;53.482;10.006;2023-04-25T04:34:30;6.10;99.90
5792;DHT22;2922;53.482;10.006;2023-04-25T04:36:56;6.10;99.90
5792;DHT22;2922;53.482;10.006;2023-04-25T04:39:22;6.00;99.90
5792;DHT22;2922;53.482;10.006;2023-04-25T04:41:48;6.10;99.90
5792;DHT22;2922;53.482;10.006;2023-04-25T04:44:14;6.10;99.90
5792;DHT22;2922;53.482;10.006;2023-04-25T04:46:40;6.00;99.90
5792;DHT22;2922;53.482;10.006;2023-04-25T04:49:08;6.00;99.90
5792;DHT22;2922;53.482;10.006;2023-04-25T04:51:34;6.00;99.90
5792;DHT22;2922;53.482;10.006;2023-04-25T04:54:00;6.10;99.90
5792;DHT22;2922;53.482;10.006;2023-04-25T04:56:30;6.10;99.90
5792;DHT22;2922;53.482;10.006;2023-04-25T04:58:59;6.10;99.90
5792;DHT22;2922;53.482;10.006;2023-04-25T05:01:25;6.20;99.90
5792;DHT22;2922;53.482;10.006;2023-04-25T05:03:52;6.20;99.90
5792;DHT22;2922;53.482;10.006;2023-04-25T05:06:19;6.20;99.90
5792;DHT22;2922;53.482;10.006;2023-04-25T05:08:44;6.20;99.90
5792;DHT22;2922;53.482;10.006;2023-04-25T05:11:10;6.20;99.90
5792;DHT22;2922;53.482;10.006;2023-04-25T05:13:36;6.30;99.90
5792;DHT22;2922;53.482;10.006;2023-04-25T05:16:02;6.30;99.90
5792;DHT22;2922;53.482;10.006;2023-04-25T05:18:27;6.30;99.90
5792;DHT22;2922;53.482;10.006;2023-04-25T05:20:53;6.20;99.90
5792;DHT22;2922;53.482;10.006;2023-04-25T05:23:19;6.30;99.90
5792;DHT22;2922;53.482;10.006;2023-04-25T05:25:44;6.30;99.90
5792;DHT22;2922;53.482;10.006;2023-04-25T05:28:13;6.20;99.90
5792;DHT22;2922;53.482;10.006;2023-04-25T05:30:39;6.30;99.90
5792;DHT22;2922;53.482;10.006;2023-04-25T05:33:05;6.20;99.90
5792;DHT22;2922;53.482;10.006;2023-04-25T05:35:30;6.30;99.90
5792;DHT22;2922;53.482;10.006;2023-04-25T05:37:56;6.20;99.90
5792;DHT22;2922;53.482;10.006;2023-04-25T05:40:21;6.30;99.90
5792;DHT22;2922;53.482;10.006;2023-04-25T05:42:47;6.20;99.90
5792;DHT22;2922;53.482;10.006;2023-04-25T05:45:13;6.20;99.90
5792;DHT22;2922;53.482;10.006;2023-04-25T05:47:38;6.20;99.90
5792;DHT22;2922;53.482;10.006;2023-04-25T05:50:04;6.20;99.90
5792;DHT22;2922;53.482;10.006;2023-04-25T05:52:30;6.10;99.90
5792;DHT22;2922;53.482;10.006;2023-04-25T05:54:56;6.20;99.90
5792;DHT22;2922;53.482;10.006;2023-04-25T05:57:26;6.20;99.90
5792;DHT22;2922;53.482;10.006;2023-04-25T05:59:52;6.20;99.90
5792;DHT22;2922;53.482;10.006;2023-04-25T06:02:19;6.20;99.90
5792;DHT22;2922;53.482;10.006;2023-04-25T06:04:46;6.20;99.90
5792;DHT22;2922;53.482;10.006;2023-04-25T06:07:11;6.20;99.90
5792;DHT22;2922;53.482;10.006;2023-04-25T06:09:37;6.30;99.90
5792;DHT22;2922;53.482;10.006;2023-04-25T06:12:05;6.30;99.90
5792;DHT22;2922;53.482;10.006;2023-04-25T06:14:30;6.40;99.90
5792;DHT22;2922;53.482;10.006;2023-04-25T06:16:56;6.50;99.90
5792;DHT22;2922;53.482;10.006;2023-04-25T06:19:21;6.60;99.90
5792;DHT22;2922;53.482;10.006;2023-04-25T06:21:47;6.70;99.90
5792;DHT22;2922;53.482;10.006;2023-04-25T06:24:12;6.70;99.90
5792;DHT22;2922;53.482;10.006;2023-04-25T06:26:38;6.70;99.90
5792;DHT22;2922;53.482;10.006;2023-04-25T06:29:04;6.70;99.90
5792;DHT22;2922;53.482;10.006;2023-04-25T06:31:29;6.80;99.90
5792;DHT22;2922;53.482;10.006;2023-04-25T06:33:57;6.80;99.90
5792;DHT22;2922;53.482;10.006;2023-04-25T06:36:23;6.80;99.90
5792;DHT22;2922;53.482;10.006;2023-04-25T06:38:53;6.80;99.90
5792;DHT22;2922;53.482;10.006;2023-04-25T06:41:19;6.90;99.90
5792;DHT22;2922;53.482;10.006;2023-04-25T06:43:45;6.80;99.90
5792;DHT22;2922;53.482;10.006;2023-04-25T06:46:11;6.90;99.90
5792;DHT22;2922;53.482;10.006;2023-04-25T06:48:36;6.90;99.90
5792;DHT22;2922;53.482;10.006;2023-04-25T06:51:02;6.80;99.90
5792;DHT22;2922;53.482;10.006;2023-04-25T06:53:28;6.90;99.90
5792;DHT22;2922;53.482;10.006;2023-04-25T06:55:53;6.80;99.90
5792;DHT22;2922;53.482;10.006;2023-04-25T06:58:19;6.70;99.90
5792;DHT22;2922;53.482;10.006;2023-04-25T07:00:45;6.80;99.90
5792;DHT22;2922;53.482;10.006;2023-04-25T07:03:10;6.90;99.90
5792;DHT22;2922;53.482;10.006;2023-04-25T07:05:36;6.90;99.90
5792;DHT22;2922;53.482;10.006;2023-04-25T07:08:01;7.00;99.90
5792;DHT22;2922;53.482;10.006;2023-04-25T07:10:28;7.10;99.90
5792;DHT22;2922;53.482;10.006;2023-04-25T07:12:53;7.10;99.90
5792;DHT22;2922;53.482;10.006;2023-04-25T07:15:19;7.10;99.90
5792;DHT22;2922;53.482;10.006;2023-04-25T07:17:45;7.20;99.90
5792;DHT22;2922;53.482;10.006;2023-04-25T07:20:11;7.30;99.90
5792;DHT22;2922;53.482;10.006;2023-04-25T07:22:37;7.40;99.90
5792;DHT22;2922;53.482;10.006;2023-04-25T07:25:02;7.40;99.90
5792;DHT22;2922;53.482;10.006;2023-04-25T07:27:29;7.40;99.90
5792;DHT22;2922;53.482;10.006;2023-04-25T07:29:55;7.40;99.90
5792;DHT22;2922;53.482;10.006;2023-04-25T07:32:21;7.50;99.90
5792;DHT22;2922;53.482;10.006;2023-04-25T07:34:46;7.50;99.90
5792;DHT22;2922;53.482;10.006;2023-04-25T07:37:13;7.50;99.90
5792;DHT22;2922;53.482;10.006;2023-04-25T07:39:39;7.50;99.90
5792;DHT22;2922;53.482;10.006;2023-04-25T07:42:05;7.50;99.90
5792;DHT22;2922;53.482;10.006;2023-04-25T07:44:33;7.40;99.90
5792;DHT22;2922;53.482;10.006;2023-04-25T07:47:07;7.50;99.90
5792;DHT22;2922;53.482;10.006;2023-04-25T07:49:41;7.50;99.90
5792;DHT22;2922;53.482;10.006;2023-04-25T07:52:07;7.50;99.90
5792;DHT22;2922;53.482;10.006;2023-04-25T07:54:33;7.60;99.90
5792;DHT22;2922;53.482;10.006;2023-04-25T07:56:58;7.70;99.90
5792;DHT22;2922;53.482;10.006;2023-04-25T07:59:24;7.60;99.90
5792;DHT22;2922;53.482;10.006;2023-04-25T08:01:50;7.90;99.90
5792;DHT22;2922;53.482;10.006;2023-04-25T08:04:16;8.00;99.90
5792;DHT22;2922;53.482;10.006;2023-04-25T08:06:42;8.20;99.90
5792;DHT22;2922;53.482;10.006;2023-04-25T08:09:08;8.30;99.90
5792;DHT22;2922;53.482;10.006;2023-04-25T08:11:35;8.40;99.90
5792;DHT22;2922;53.482;10.006;2023-04-25T08:14:01;8.50;99.90
5792;DHT22;2922;53.482;10.006;2023-04-25T08:16:27;8.50;99.90
5792;DHT22;2922;53.482;10.006;2023-04-25T08:18:52;8.50;99.90
5792;DHT22;2922;53.482;10.006;2023-04-25T08:21:18;8.60;99.90
5792;DHT22;2922;53.482;10.006;2023-04-25T08:23:44;8.60;99.90
5792;DHT22;2922;53.482;10.006;2023-04-25T08:26:09;8.70;99.90
5792;DHT22;2922;53.482;10.006;2023-04-25T08:28:35;8.70;99.90
5792;DHT22;2922;53.482;10.006;2023-04-25T08:31:00;8.90;99.90
5792;DHT22;2922;53.482;10.006;2023-04-25T08:33:26;8.90;99.90
5792;DHT22;2922;53.482;10.006;2023-04-25T08:35:52;8.90;99.90
5792;DHT22;2922;53.482;10.006;2023-04-25T08:38:18;9.10;99.90
5792;DHT22;2922;53.482;10.006;2023-04-25T08:40:44;9.30;99.90
5792;DHT22;2922;53.482;10.006;2023-04-25T08:43:13;9.30;99.90
5792;DHT22;2922;53.482;10.006;2023-04-25T08:45:40;9.00;99.90
5792;DHT22;2922;53.482;10.006;2023-04-25T08:48:10;8.70;99.90
5792;DHT22;2922;53.482;10.006;2023-04-25T08:50:45;8.90;99.90
5792;DHT22;2922;53.482;10.006;2023-04-25T08:53:12;9.00;99.90
5792;DHT22;2922;53.482;10.006;2023-04-25T08:55:42;9.20;99.90
5792;DHT22;2922;53.482;10.006;2023-04-25T08:58:07;9.30;99.90
5792;DHT22;2922;53.482;10.006;2023-04-25T09:00:34;9.40;99.90
5792;DHT22;2922;53.482;10.006;2023-04-25T09:03:00;9.40;99.90
5792;DHT22;2922;53.482;10.006;2023-04-25T09:05:26;9.10;99.90
5792;DHT22;2922;53.482;10.006;2023-04-25T09:07:51;8.50;99.90
5792;DHT22;2922;53.482;10.006;2023-04-25T09:10:17;7.90;99.90
5792;DHT22;2922;53.482;10.006;2023-04-25T09:12:42;7.20;99.90
5792;DHT22;2922;53.482;10.006;2023-04-25T09:15:10;6.90;99.90
5792;DHT22;2922;53.482;10.006;2023-04-25T09:17:36;6.70;99.90
5792;DHT22;2922;53.482;10.006;2023-04-25T09:20:10;6.50;99.90
5792;DHT22;2922;53.482;10.006;2023-04-25T09:22:36;6.50;99.90
5792;DHT22;2922;53.482;10.006;2023-04-25T09:25:07;6.40;99.90
5792;DHT22;2922;53.482;10.006;2023-04-25T09:27:33;6.60;99.90
5792;DHT22;2922;53.482;10.006;2023-04-25T09:29:59;6.60;99.90
5792;DHT22;2922;53.482;10.006;2023-04-25T09:32:28;6.60;99.90
5792;DHT22;2922;53.482;10.006;2023-04-25T09:34:55;6.70;99.90
5792;DHT22;2922;53.482;10.006;2023-04-25T09:37:26;6.90;99.90
5792;DHT22;2922;53.482;10.006;2023-04-25T09:39:54;7.10;99.90
5792;DHT22;2922;53.482;10.006;2023-04-25T09:42:24;7.40;99.90
5792;DHT22;2922;53.482;10.006;2023-04-25T09:44:52;7.90;99.90
5792;DHT22;2922;53.482;10.006;2023-04-25T09:47:18;8.00;99.90
5792;DHT22;2922;53.482;10.006;2023-04-25T09:49:47;8.30;99.90
5792;DHT22;2922;53.482;10.006;2023-04-25T09:52:18;8.10;99.90
5792;DHT22;2922;53.482;10.006;2023-04-25T09:54:44;8.00;99.90
5792;DHT22;2922;53.482;10.006;2023-04-25T09:57:23;7.90;99.90
5792;DHT22;2922;53.482;10.006;2023-04-25T09:59:49;7.80;99.90
5792;DHT22;2922;53.482;10.006;2023-04-25T10:02:18;7.50;99.90
5792;DHT22;2922;53.482;10.006;2023-04-25T10:04:51;7.50;99.90
5792;DHT22;2922;53.482;10.006;2023-04-25T10:07:19;7.50;99.90
5792;DHT22;2922;53.482;10.006;2023-04-25T10:09:47;7.60;99.90
5792;DHT22;2922;53.482;10.006;2023-04-25T10:12:15;7.70;99.90
5792;DHT22;2922;53.482;10.006;2023-04-25T10:14:42;7.80;99.90
5792;DHT22;2922;53.482;10.006;2023-04-25T10:17:10;8.00;99.90
5792;DHT22;2922;53.482;10.006;2023-04-25T10:19:37;8.20;99.90
5792;DHT22;2922;53.482;10.006;2023-04-25T10:22:14;8.40;99.90
5792;DHT22;2922;53.482;10.006;2023-04-25T10:24:43;8.60;99.90
5792;DHT22;2922;53.482;10.006;2023-04-25T10:27:09;8.60;99.90
5792;DHT22;2922;53.482;10.006;2023-04-25T10:29:36;8.70;99.90
5792;DHT22;2922;53.482;10.006;2023-04-25T10:32:02;8.80;99.90
5792;DHT22;2922;53.482;10.006;2023-04-25T10:34:41;8.80;99.90
5792;DHT22;2922;53.482;10.006;2023-04-25T10:37:10;9.20;99.90
5792;DHT22;2922;53.482;10.006;2023-04-25T10:39:39;9.50;99.90
5792;DHT22;2922;53.482;10.006;2023-04-25T10:42:05;9.60;99.90
5792;DHT22;2922;53.482;10.006;2023-04-25T10:44:31;9.90;99.90
5792;DHT22;2922;53.482;10.006;2023-04-25T10:46:59;9.90;99.90
5792;DHT22;2922;53.482;10.006;2023-04-25T10:49:32;9.50;99.90
5792;DHT22;2922;53.482;10.006;2023-04-25T10:54:46;8.90;99.90
5792;DHT22;2922;53.482;10.006;2023-04-25T11:00:11;9.00;99.90
5792;DHT22;2922;53.482;10.006;2023-04-25T11:02:51;9.10;99.90
5792;DHT22;2922;53.482;10.006;2023-04-25T11:07:54;8.80;99.90
5792;DHT22;2922;53.482;10.006;2023-04-25T11:10:28;8.80;99.90
5792;DHT22;2922;53.482;10.006;2023-04-25T11:12:54;8.90;99.90
5792;DHT22;2922;53.482;10.006;2023-04-25T11:15:20;8.70;99.90
5792;DHT22;2922;53.482;10.006;2023-04-25T11:17:46;8.70;99.90
5792;DHT22;2922;53.482;10.006;2023-04-25T11:20:12;9.00;99.90
5792;DHT22;2922;53.482;10.006;2023-04-25T11:22:39;9.30;99.90
5792;DHT22;2922;53.482;10.006;2023-04-25T11:25:10;9.60;99.90
5792;DHT22;2922;53.482;10.006;2023-04-25T11:27:49;9.70;99.90
5792;DHT22;2922;53.482;10.006;2023-04-25T11:30:16;10.20;99.90
5792;DHT22;2922;53.482;10.006;2023-04-25T11:32:43;10.30;99.90
5792;DHT22;2922;53.482;10.006;2023-04-25T11:35:09;10.70;99.90
5792;DHT22;2922;53.482;10.006;2023-04-25T11:37:35;10.70;99.90
5792;DHT22;2922;53.482;10.006;2023-04-25T11:40:02;10.80;99.90
5792;DHT22;2922;53.482;10.006;2023-04-25T11:42:28;10.90;99.90
5792;DHT22;2922;53.482;10.006;2023-04-25T11:44:55;10.80;99.90
5792;DHT22;2922;53.482;10.006;2023-04-25T11:47:30;9.90;99.90
5792;DHT22;2922;53.482;10.006;2023-04-25T11:49:58;9.20;99.90
5792;DHT22;2922;53.482;10.006;2023-04-25T11:52:34;8.60;99.90
5792;DHT22;2922;53.482;10.006;2023-04-25T11:55:00;8.20;99.90
5792;DHT22;2922;53.482;10.006;2023-04-25T11:57:25;8.20;99.90
5792;DHT22;2922;53.482;10.006;2023-04-25T11:59:51;8.20;99.90
5792;DHT22;2922;53.482;10.006;2023-04-25T12:02:26;8.20;99.90
5792;DHT22;2922;53.482;10.006;2023-04-25T12:04:52;8.50;99.90
5792;DHT22;2922;53.482;10.006;2023-04-25T12:07:17;8.70;99.90
5792;DHT22;2922;53.482;10.006;2023-04-25T12:09:51;9.20;99.90
5792;DHT22;2922;53.482;10.006;2023-04-25T12:12:18;9.70;99.90
5792;DHT22;2922;53.482;10.006;2023-04-25T12:14:46;10.00;99.90
5792;DHT22;2922;53.482;10.006;2023-04-25T12:17:13;10.30;99.90
5792;DHT22;2922;53.482;10.006;2023-04-25T12:19:39;10.30;99.90
5792;DHT22;2922;53.482;10.006;2023-04-25T12:22:23;9.90;99.90
5792;DHT22;2922;53.482;10.006;2023-04-25T12:24:49;9.80;99.90
5792;DHT22;2922;53.482;10.006;2023-04-25T12:27:16;10.20;99.90
5792;DHT22;2922;53.482;10.006;2023-04-25T12:29:53;10.00;99.90
5792;DHT22;2922;53.482;10.006;2023-04-25T12:32:20;10.10;99.90
5792;DHT22;2922;53.482;10.006;2023-04-25T12:34:45;10.20;99.90
5792;DHT22;2922;53.482;10.006;2023-04-25T12:37:11;10.10;99.90
5792;DHT22;2922;53.482;10.006;2023-04-25T12:39:37;10.00;99.90
5792;DHT22;2922;53.482;10.006;2023-04-25T12:42:03;9.80;99.90
5792;DHT22;2922;53.482;10.006;2023-04-25T12:44:28;9.30;99.90
5792;DHT22;2922;53.482;10.006;2023-04-25T12:46:54;9.10;99.90
5792;DHT22;2922;53.482;10.006;2023-04-25T12:49:20;8.90;99.90
5792;DHT22;2922;53.482;10.006;2023-04-25T12:51:46;8.90;99.90
5792;DHT22;2922;53.482;10.006;2023-04-25T12:54:12;9.00;99.90
5792;DHT22;2922;53.482;10.006;2023-04-25T12:56:40;9.30;99.90
5792;DHT22;2922;53.482;10.006;2023-04-25T12:59:06;9.60;99.90
5792;DHT22;2922;53.482;10.006;2023-04-25T13:01:32;10.00;99.90
5792;DHT22;2922;53.482;10.006;2023-04-25T13:03:58;10.40;99.90
5792;DHT22;2922;53.482;10.006;2023-04-25T13:06:23;10.50;99.90
5792;DHT22;2922;53.482;10.006;2023-04-25T13:08:49;10.10;99.90
5792;DHT22;2922;53.482;10.006;2023-04-25T13:11:15;9.80;99.90
5792;DHT22;2922;53.482;10.006;2023-04-25T13:13:41;9.50;99.90
5792;DHT22;2922;53.482;10.006;2023-04-25T13:16:07;9.20;99.90
5792;DHT22;2922;53.482;10.006;2023-04-25T13:18:33;9.00;99.90
5792;DHT22;2922;53.482;10.006;2023-04-25T13:20:59;9.00;99.90
5792;DHT22;2922;53.482;10.006;2023-04-25T13:23:27;8.90;99.90
5792;DHT22;2922;53.482;10.006;2023-04-25T13:25:53;8.90;99.90
5792;DHT22;2922;53.482;10.006;2023-04-25T13:28:18;8.90;99.90
5792;DHT22;2922;53.482;10.006;2023-04-25T13:30:44;8.80;99.90
5792;DHT22;2922;53.482;10.006;2023-04-25T13:33:10;8.60;99.90
5792;DHT22;2922;53.482;10.006;2023-04-25T13:35:37;8.60;99.90
5792;DHT22;2922;53.482;10.006;2023-04-25T13:38:03;8.50;99.90
5792;DHT22;2922;53.482;10.006;2023-04-25T13:40:29;8.60;99.90
5792;DHT22;2922;53.482;10.006;2023-04-25T13:42:55;8.60;99.90
5792;DHT22;2922;53.482;10.006;2023-04-25T13:45:21;8.70;99.90
5792;DHT22;2922;53.482;10.006;2023-04-25T13:47:47;8.80;99.90
5792;DHT22;2922;53.482;10.006;2023-04-25T13:50:12;8.90;99.90
5792;DHT22;2922;53.482;10.006;2023-04-25T13:52:39;9.00;99.90
5792;DHT22;2922;53.482;10.006;2023-04-25T13:55:05;9.40;99.90
5792;DHT22;2922;53.482;10.006;2023-04-25T13:57:33;9.70;99.90
5792;DHT22;2922;53.482;10.006;2023-04-25T13:59:59;9.90;99.90
5792;DHT22;2922;53.482;10.006;2023-04-25T14:02:24;9.70;99.90
5792;DHT22;2922;53.482;10.006;2023-04-25T14:04:51;8.90;99.90
5792;DHT22;2922;53.482;10.006;2023-04-25T14:07:16;8.70;99.90
5792;DHT22;2922;53.482;10.006;2023-04-25T14:09:43;8.60;99.90
5792;DHT22;2922;53.482;10.006;2023-04-25T14:12:09;8.50;99.90
5792;DHT22;2922;53.482;10.006;2023-04-25T14:14:35;8.30;99.90
5792;DHT22;2922;53.482;10.006;2023-04-25T14:17:00;8.30;99.90
5792;DHT22;2922;53.482;10.006;2023-04-25T14:19:26;8.40;99.90
5792;DHT22;2922;53.482;10.006;2023-04-25T14:21:51;8.40;99.90
5792;DHT22;2922;53.482;10.006;2023-04-25T14:24:17;8.40;99.90
5792;DHT22;2922;53.482;10.006;2023-04-25T14:26:43;8.50;99.90
5792;DHT22;2922;53.482;10.006;2023-04-25T14:29:09;8.60;99.90
5792;DHT22;2922;53.482;10.006;2023-04-25T14:31:37;8.80;99.90
5792;DHT22;2922;53.482;10.006;2023-04-25T14:34:03;9.00;99.90
5792;DHT22;2922;53.482;10.006;2023-04-25T14:36:28;9.00;99.90
5792;DHT22;2922;53.482;10.006;2023-04-25T14:38:54;9.00;99.90
5792;DHT22;2922;53.482;10.006;2023-04-25T14:41:20;8.80;99.90
5792;DHT22;2922;53.482;10.006;2023-04-25T14:43:46;8.70;99.90
5792;DHT22;2922;53.482;10.006;2023-04-25T14:46:12;8.60;99.90
5792;DHT22;2922;53.482;10.006;2023-04-25T14:48:38;8.50;99.90
5792;DHT22;2922;53.482;10.006;2023-04-25T14:51:04;8.50;99.90
5792;DHT22;2922;53.482;10.006;2023-04-25T14:53:30;8.50;99.90
5792;DHT22;2922;53.482;10.006;2023-04-25T14:55:56;8.60;99.90
5792;DHT22;2922;53.482;10.006;2023-04-25T14:58:21;8.70;99.90
5792;DHT22;2922;53.482;10.006;2023-04-25T15:00:48;8.80;99.90
5792;DHT22;2922;53.482;10.006;2023-04-25T15:03:14;8.80;99.90
5792;DHT22;2922;53.482;10.006;2023-04-25T15:05:41;8.90;99.90
5792;DHT22;2922;53.482;10.006;2023-04-25T15:08:07;8.90;99.90
5792;DHT22;2922;53.482;10.006;2023-04-25T15:10:33;9.00;99.90
5792;DHT22;2922;53.482;10.006;2023-04-25T15:12:59;9.00;99.90
5792;DHT22;2922;53.482;10.006;2023-04-25T15:15:24;9.20;99.90
5792;DHT22;2922;53.482;10.006;2023-04-25T15:17:50;9.10;99.90
5792;DHT22;2922;53.482;10.006;2023-04-25T15:20:16;8.80;99.90
5792;DHT22;2922;53.482;10.006;2023-04-25T15:22:43;8.40;99.90
5792;DHT22;2922;53.482;10.006;2023-04-25T15:25:10;8.20;99.90
5792;DHT22;2922;53.482;10.006;2023-04-25T15:27:37;8.20;99.90
5792;DHT22;2922;53.482;10.006;2023-04-25T15:30:09;8.20;99.90
5792;DHT22;2922;53.482;10.006;2023-04-25T15:32:36;8.00;99.90
5792;DHT22;2922;53.482;10.006;2023-04-25T15:35:04;8.10;99.90
5792;DHT22;2922;53.482;10.006;2023-04-25T15:37:30;8.30;99.90
5792;DHT22;2922;53.482;10.006;2023-04-25T15:40:05;8.50;99.90
5792;DHT22;2922;53.482;10.006;2023-04-25T15:42:45;8.70;99.90
5792;DHT22;2922;53.482;10.006;2023-04-25T15:45:19;8.80;99.90
5792;DHT22;2922;53.482;10.006;2023-04-25T15:47:45;8.70;99.90
5792;DHT22;2922;53.482;10.006;2023-04-25T15:50:12;8.60;99.90
5792;DHT22;2922;53.482;10.006;2023-04-25T15:52:39;8.40;99.90
5792;DHT22;2922;53.482;10.006;2023-04-25T15:55:05;8.30;99.90
5792;DHT22;2922;53.482;10.006;2023-04-25T15:57:33;8.30;99.90
5792;DHT22;2922;53.482;10.006;2023-04-25T15:59:59;8.30;99.90
5792;DHT22;2922;53.482;10.006;2023-04-25T16:02:25;8.30;99.90
5792;DHT22;2922;53.482;10.006;2023-04-25T16:04:51;8.20;99.90